Asherville, Indiana
Current Conditions -  °F | °C
As of 7:53 AM on Friday 19 Dec 2014 (Local Time) from KHUF Reporting Station
Clear Clear  
Wind Chill: 17°   Ceiling: Unl
Heat Index: 23°   Visibility: 9mi
Dew Point: 19°   Wind: 5mph
Humidity: 85%   Direction: 10°N
Pressure: 30.29"   Gusts: NA
Location:  39.5158°N, 87.1262°W
Report Text: KHUF 191253Z 01004KT 9SM CLR M05/M07 A3029 RMK AO2 SLP266 I1000 T10501072
Loading
Personal Weather Stations






























Interactive Weather Map New forecast layout! Learn more

10-Day Weather Forecast

Advertisements
Track Severe Weather on mobile